M I D A S
Marine Information and Data Acquisition System
Tripno 641 of the Zeeleeuw from 2004-02-03 07:40:56 to 2004-02-03 15:59:30
Back to CruiseResearch ActivitiesStationsMapUnderway DataData graphs

EquipmentUnitsComment
TimeDGPSUTC
LatitudeDGPSDM.mWGS84
LongitudeDGPSDM.mWGS84
HeadingGyrodeg 
SOGDGPSknotsSpeed over ground
COGDGPSdegCourse over ground
DepthEcho soundermeters200 kHz
Missing or incorrect values are displayed as -999
Navigation data collected by the RV Zeeleeuw from 2004-02-03 07:40:56 to 2004-02-03 15:59:30
                                                                                    Next 1000 lines
Time Latitude Longitude Heading SOG COG Depth
2004-02-03 07:41:04 51°13.593 2°56.107 126.7   84 7.7
2004-02-03 07:41:08 51°13.592 2°56.108 126.3 0.1 87 7.6
2004-02-03 07:41:14 51°13.592 2°56.108 125.6 0.1 168 7.6
2004-02-03 07:41:20 51°13.592 2°56.108 124.5   199 7.6
2004-02-03 07:41:24 51°13.592 2°56.108 123.2 0.1 209 5.7
2004-02-03 07:41:30 51°13.592 2°56.108 122.1 0.1 197 7.6
2004-02-03 07:41:34 51°13.592 2°56.108 121.2 0.1 187 7.6
2004-02-03 07:41:39 51°13.592 2°56.108 120.4   186 5.7
2004-02-03 07:41:44 51°13.592 2°56.107 119.7   189 7.7
2004-02-03 07:41:48 51°13.592 2°56.108 119.3   189 7.7
2004-02-03 07:41:54 51°13.592 2°56.107 118.6 0.1 189 7.7
2004-02-03 07:41:59 51°13.592 2°56.107 117.9 0.1 187 7.7
2004-02-03 07:42:04 51°13.591 2°56.107 117 0.1 187 7.7
2004-02-03 07:42:08 51°13.591 2°56.107 116.1 0.2 260 7.7
2004-02-03 07:42:14 51°13.592 2°56.106 115.4 0.5 277 7.8
2004-02-03 07:42:19 51°13.592 2°56.104 115.2 0.7 282 5.7
2004-02-03 07:42:24 51°13.592 2°56.101 115.1 1.1 285 7.8
2004-02-03 07:42:30 51°13.593 2°56.097 115.3 1.3 287 5.7
2004-02-03 07:42:34 51°13.594 2°56.094 115.5 1.6 290 7.7
2004-02-03 07:42:40 51°13.595 2°56.089 116 1.9 291 -999
2004-02-03 07:42:45 51°13.596 2°56.085 116.2 2.1 290 -999
2004-02-03 07:42:50 51°13.597 2°56.08 116.5 2.3 292 -999
2004-02-03 07:42:55 51°13.599 2°56.075 116.8 2.5 294 -999
2004-02-03 07:43:00 51°13.601 2°56.07 117.5 2.6 294 -999
2004-02-03 07:43:04 51°13.602 2°56.065 118.1 2.8 296 -999
2004-02-03 07:43:10 51°13.604 2°56.058 118.4 2.9 296 -999
2004-02-03 07:43:15 51°13.606 2°56.052 118.4 3.1 297 -999
2004-02-03 07:43:20 51°13.608 2°56.046 118.4 3.2 298 -999
2004-02-03 07:43:24 51°13.61 2°56.04 118.2 3.4 296 -999
2004-02-03 07:43:30 51°13.612 2°56.032 118 3.5 296 -999
2004-02-03 07:43:35 51°13.614 2°56.025 117.7 3.6 296 -999
2004-02-03 07:43:40 51°13.617 2°56.017 117.6 3.7 296 -999
2004-02-03 07:43:45 51°13.619 2°56.01 117.5 3.8 296 -999
2004-02-03 07:43:50 51°13.621 2°56.002 117.2 3.9 295 -999
2004-02-03 07:43:55 51°13.623 2°55.994 116.6 3.9 295 -999
2004-02-03 07:44:00 51°13.626 2°55.986 116.2 3.9 294 -999
2004-02-03 07:44:04 51°13.627 2°55.98 116.1 3.9 294 -999
2004-02-03 07:44:10 51°13.63 2°55.97 116 4 294 -999
2004-02-03 07:44:15 51°13.632 2°55.962 116 4 295 -999
2004-02-03 07:44:20 51°13.635 2°55.954 116 4 295 -999
2004-02-03 07:44:24 51°13.637 2°55.948 116 4.1 294 -999
2004-02-03 07:44:30 51°13.64 2°55.938 115.7 4.2 294 -999
2004-02-03 07:44:35 51°13.642 2°55.929 115.3 4.3 294 -999
2004-02-03 07:44:40 51°13.645 2°55.92 114.7 4.4 294 -999
2004-02-03 07:44:45 51°13.648 2°55.911 114.4 4.4 293 -999
2004-02-03 07:44:50 51°13.651 2°55.901 113.9 4.5 293 -999
2004-02-03 07:44:55 51°13.653 2°55.892 113.5 4.6 293 -999
2004-02-03 07:45:00 51°13.655 2°55.882 112.9 4.6 292 -999
2004-02-03 07:45:04 51°13.657 2°55.875 111.9 4.6 291 -999
2004-02-03 07:45:10 51°13.66 2°55.863 111 4.6 290 -999
2004-02-03 07:45:15 51°13.662 2°55.854 110.1 4.6 290 -999
2004-02-03 07:45:20 51°13.663 2°55.844 109 4.5 289 -999
2004-02-03 07:45:24 51°13.665 2°55.837 108 4.5 288 10.3
2004-02-03 07:45:30 51°13.667 2°55.826 106.6 4.5 287 -999
2004-02-03 07:45:34 51°13.668 2°55.818 105 4.5 285 10.1
2004-02-03 07:45:39 51°13.669 2°55.809 103.4 4.4 284 -999
2004-02-03 07:45:44 51°13.67 2°55.8 102 4.3 283 10.5
2004-02-03 07:45:48 51°13.67 2°55.793 100.6 4 282 10.7
2004-02-03 07:45:54 51°13.672 2°55.785 98.9 3.1 280 10.9
2004-02-03 07:45:59 51°13.673 2°55.779 95.8 2.6 281 11
2004-02-03 07:46:04 51°13.673 2°55.775 93.1 2.1 281 11.2
2004-02-03 07:46:10 51°13.674 2°55.772 89.6 1.5 284 11.4
2004-02-03 07:46:14 51°13.675 2°55.772 85.6 0.6 304 11.6
2004-02-03 07:46:18 51°13.675 2°55.772 81.4 0.6 353 11.6
2004-02-03 07:46:24 51°13.677 2°55.773 73.8 1.1 43 11.9
2004-02-03 07:46:29 51°13.678 2°55.776 68 1.6 41 12.3
2004-02-03 07:46:34 51°13.681 2°55.779 57.8 2.3 39 13.1
2004-02-03 07:46:38 51°13.684 2°55.782 50.6 2.7 30 13.3
2004-02-03 07:46:44 51°13.689 2°55.785 39.3 3.4 20 13.3
2004-02-03 07:46:48 51°13.693 2°55.786 29.4 3.6 17 12.8
2004-02-03 07:46:54 51°13.701 2°55.786 18.1 4.5 358 13.1
2004-02-03 07:46:59 51°13.707 2°55.784 6.7 4.5 358 13.1
2004-02-03 07:47:04 51°13.714 2°55.78 355.6 5 342 12.7
2004-02-03 07:47:10 51°13.722 2°55.773 345.4 5.2 334 11.8
2004-02-03 07:47:14 51°13.727 2°55.767 336 5.4 324 11.6
2004-02-03 07:47:20 51°13.733 2°55.759 329.9 5.3 322 10.6
2004-02-03 07:47:24 51°13.737 2°55.753 324.9 5.1 318 10.1
2004-02-03 07:47:28 51°13.741 2°55.747 322.7 5 317 10.2
2004-02-03 07:47:34 51°13.747 2°55.737 320 4.9 314 10.1
2004-02-03 07:47:39 51°13.752 2°55.73 318.6 4.9 314 10.1
2004-02-03 07:47:44 51°13.757 2°55.721 317.9 5.1 313 10.3
2004-02-03 07:47:50 51°13.763 2°55.71 317.9 5.1 313 10.3
2004-02-03 07:47:54 51°13.768 2°55.703 318.6 5.8 316 10
2004-02-03 07:47:59 51°13.774 2°55.694 319.2 6 316 10.2
2004-02-03 07:48:04 51°13.781 2°55.685 320.6 6.2 317 10.3
2004-02-03 07:48:09 51°13.787 2°55.675 322.1 6.4 318 10.3
2004-02-03 07:48:14 51°13.795 2°55.666 323.7 6.7 321 10.4
2004-02-03 07:48:19 51°13.802 2°55.657 325.5 6.8 323 10.8
2004-02-03 07:48:24 51°13.81 2°55.648 327.6 6.9 325 11
2004-02-03 07:48:30 51°13.82 2°55.638 329.6 7 327 11.1
2004-02-03 07:48:34 51°13.827 2°55.632 332.8 7.2 331 11
2004-02-03 07:48:39 51°13.836 2°55.625 335.3 7.3 333 10.7
2004-02-03 07:48:44 51°13.845 2°55.618 336.8 7.4 334 10.4
2004-02-03 07:48:48 51°13.853 2°55.612 337.9 7.5 334 10.4
2004-02-03 07:48:54 51°13.864 2°55.603 338.6 7.6 335 11
2004-02-03 07:48:59 51°13.874 2°55.596 339.5 7.7 335 10.4
2004-02-03 07:49:04 51°13.884 2°55.589 340.1 7.8 335 10.4
2004-02-03 07:49:08 51°13.892 2°55.583 340 7.8 334 10.3
2004-02-03 07:49:14 51°13.904 2°55.574 339.8 7.9 335 10.6
2004-02-03 07:49:19 51°13.914 2°55.567 339.8 7.9 334 10.4
2004-02-03 07:49:24 51°13.924 2°55.559 340 8 336 10.4
2004-02-03 07:49:28 51°13.932 2°55.553 340.5 8 335 10.3
2004-02-03 07:49:34 51°13.944 2°55.545 341 8.1 335 10.5
2004-02-03 07:49:39 51°13.954 2°55.537 340.9 8.1 335 10.4
2004-02-03 07:49:44 51°13.965 2°55.53 341.2 8.2 335 10.4
2004-02-03 07:49:49 51°13.975 2°55.522 342.2 8.2 336 10.4
2004-02-03 07:49:54 51°13.985 2°55.515 342.3 8.2 336 10.3
2004-02-03 07:49:59 51°13.995 2°55.507 341.7 8.2 336 10.1
2004-02-03 07:50:04 51°14.006 2°55.5 341.7 8.2 337 9.9
2004-02-03 07:50:09 51°14.016 2°55.493 341.8 8.2 337 9.8
2004-02-03 07:50:14 51°14.027 2°55.486 341.8 8.2 337 9.8
2004-02-03 07:50:19 51°14.037 2°55.479 341.8 8.2 337 9.7
2004-02-03 07:50:24 51°14.048 2°55.471 341.5 8.2 337 9.7
2004-02-03 07:50:28 51°14.056 2°55.465 341.1 8.3 336 9.6
2004-02-03 07:50:34 51°14.069 2°55.456 341 8.2 336 9.6
2004-02-03 07:50:39 51°14.079 2°55.449 341 8.2 335 9.6
2004-02-03 07:50:44 51°14.089 2°55.441 340.4 8.3 335 9.5
2004-02-03 07:50:50 51°14.102 2°55.432 340.2 8.3 335 9.6
2004-02-03 07:50:54 51°14.11 2°55.426 340.4 8.3 335 9.5
2004-02-03 07:50:59 51°14.121 2°55.418 340.6 8.3 334 10.2
2004-02-03 07:51:04 51°14.131 2°55.41 339.5 8.2 334 9.7
2004-02-03 07:51:09 51°14.14 2°55.402 338.1 8 333 10.9
2004-02-03 07:51:14 51°14.149 2°55.394 336.9 7.4 332 9.8
2004-02-03 07:51:19 51°14.158 2°55.386 336.2 7.2 330 10.1
2004-02-03 07:51:24 51°14.166 2°55.379 334.5 7 330 10.4
2004-02-03 07:51:28 51°14.172 2°55.372 332.7 6.7 327 11.3
2004-02-03 07:51:34 51°14.181 2°55.363 330.8 6.4 326 11.5
2004-02-03 07:51:39 51°14.188 2°55.355 329.2 6.2 325 11.4
2004-02-03 07:51:44 51°14.195 2°55.347 328.1 6.1 324 10.5
2004-02-03 07:51:50 51°14.203 2°55.338 327.4 5.8 323 10.4
2004-02-03 07:51:54 51°14.208 2°55.332 327.1 5.6 322 10.4
2004-02-03 07:51:59 51°14.214 2°55.324 326.1 5.5 321 10.4
2004-02-03 07:52:04 51°14.22 2°55.317 324.9 5.4 320 10.4
2004-02-03 07:52:08 51°14.225 2°55.31 323.6 5.3 319 10.5
2004-02-03 07:52:14 51°14.231 2°55.301 322.5 5.2 318 10.7
2004-02-03 07:52:19 51°14.236 2°55.294 321.8 5.1 317 10.6
2004-02-03 07:52:24 51°14.241 2°55.286 321.5 5 317 10.5
2004-02-03 07:52:28 51°14.245 2°55.28 321 4.9 316 10.6
2004-02-03 07:52:34 51°14.251 2°55.271 320.8 4.8 316 10.6
2004-02-03 07:52:39 51°14.255 2°55.264 320.3 4.7 315 10.7
2004-02-03 07:52:44 51°14.26 2°55.256 319.8 4.7 315 10.9
2004-02-03 07:52:48 51°14.263 2°55.251 319.1 4.6 314 10.8
2004-02-03 07:52:54 51°14.268 2°55.242 318.3 4.5 313 10.8
2004-02-03 07:52:59 51°14.272 2°55.235 317.5 4.4 312 10.8
2004-02-03 07:53:04 51°14.276 2°55.228 316.9 4.3 312 10.9
2004-02-03 07:53:08 51°14.279 2°55.222 316.4 4.3 312 10.9
2004-02-03 07:53:14 51°14.284 2°55.214 316.3 4.2 311 10.9
2004-02-03 07:53:19 51°14.288 2°55.207 316 4.1 310 10.9
2004-02-03 07:53:24 51°14.291 2°55.2 315.6 4.1 310 11
2004-02-03 07:53:29 51°14.295 2°55.193 315.2 4 310 11
2004-02-03 07:53:34 51°14.298 2°55.186 315.2 4 310 11
2004-02-03 07:53:39 51°14.302 2°55.179 315.2 4 310 11
2004-02-03 07:53:44 51°14.305 2°55.172 315.3 4.1 310 10.9
2004-02-03 07:53:49 51°14.309 2°55.165 315.3 4.1 310 10.9
2004-02-03 07:53:54 51°14.313 2°55.158 315.2 4.2 310 11
2004-02-03 07:53:59 51°14.316 2°55.151 315.1 4.3 309 10.9
2004-02-03 07:54:04 51°14.32 2°55.143 315 4.3 310 10.9
2004-02-03 07:54:09 51°14.325 2°55.135 315 4.7 310 10.9
2004-02-03 07:54:14 51°14.329 2°55.126 315.3 5.5 311 10.9
2004-02-03 07:54:19 51°14.335 2°55.116 316.3 6.1 312 10.9
2004-02-03 07:54:24 51°14.342 2°55.105 317.8 6.6 313 11
2004-02-03 07:54:28 51°14.348 2°55.096 319.9 7.4 316 10.9
2004-02-03 07:54:34 51°14.357 2°55.081 321.6 7.6 317 10.8
2004-02-03 07:54:39 51°14.366 2°55.069 321.8 8.4 317 10.9
2004-02-03 07:54:44 51°14.375 2°55.056 322.2 8.8 318 11.2
2004-02-03 07:54:48 51°14.383 2°55.045 323.5 9.1 319 11.4
2004-02-03 07:54:54 51°14.396 2°55.03 324.9 9.7 323 11.5
2004-02-03 07:54:59 51°14.407 2°55.018 327.2 9.9 326 11.3
2004-02-03 07:55:04 51°14.42 2°55.007 331.2 10.1 329 11.1
2004-02-03 07:55:09 51°14.433 2°54.997 335.1 10.2 333 11
2004-02-03 07:55:14 51°14.446 2°54.987 337 10.5 334 10.7
2004-02-03 07:55:18 51°14.457 2°54.979 337.9 10.6 335 10.5
2004-02-03 07:55:24 51°14.473 2°54.967 338.1 10.8 335 10.5
2004-02-03 07:55:30 51°14.489 2°54.954 337.9 10.8 335 10.6
2004-02-03 07:55:34 51°14.5 2°54.946 337.5 10.9 334 10.4
2004-02-03 07:55:40 51°14.517 2°54.933 337.4 11 334 10.2
2004-02-03 07:55:44 51°14.528 2°54.924 337 11 334 10.2
2004-02-03 07:55:50 51°14.544 2°54.911 336.4 11 333 10.2
2004-02-03 07:55:54 51°14.555 2°54.902 336 11.1 333 10.3
2004-02-03 07:55:59 51°14.569 2°54.891 335.9 11.2 333 10.3
2004-02-03 07:56:04 51°14.583 2°54.88 335.9 11.2 333 10.2
2004-02-03 07:56:08 51°14.593 2°54.871 335.7 10.7 333 10.1
2004-02-03 07:56:14 51°14.608 2°54.858 335 10.3 332 10.2
2004-02-03 07:56:18 51°14.618 2°54.85 334.3 10 332 10.2
2004-02-03 07:56:24 51°14.632 2°54.837 333.5 9.6 331 10.3
2004-02-03 07:56:29 51°14.643 2°54.828 332.8 9.4 331 10.2
2004-02-03 07:56:34 51°14.654 2°54.818 332.2 9.1 331 10.4
2004-02-03 07:56:39 51°14.665 2°54.808 331.9 8.8 331 10.3
2004-02-03 07:56:44 51°14.675 2°54.799 331.9 8.6 331 10.2
2004-02-03 07:56:49 51°14.685 2°54.79 331.8 8.5 331 10.2
2004-02-03 07:56:54 51°14.695 2°54.782 331.8 8.2 331 10.2
2004-02-03 07:56:59 51°14.705 2°54.773 332 8.3 331 10.2
2004-02-03 07:57:04 51°14.715 2°54.764 332.2 8.1 332 10.4
2004-02-03 07:57:09 51°14.725 2°54.756 332.3 8 333 10.3
2004-02-03 07:57:14 51°14.735 2°54.748 332.4 7.9 332 10.3
2004-02-03 07:57:19 51°14.744 2°54.74 332.3 7.9 332 10.2
2004-02-03 07:57:24 51°14.753 2°54.732 332.1 7.7 332 10
2004-02-03 07:57:28 51°14.761 2°54.726 331.6 7.6 332 10
2004-02-03 07:57:34 51°14.772 2°54.717 331.6 7.5 332 10
2004-02-03 07:57:39 51°14.781 2°54.709 331.6 7.7 332 10.2
2004-02-03 07:57:44 51°14.791 2°54.7 331.5 8.1 332 10
2004-02-03 07:57:48 51°14.8 2°54.692 331.5 8.6 332 10.1
2004-02-03 07:57:54 51°14.814 2°54.68 332.1 9.7 331 10.1
2004-02-03 07:57:59 51°14.827 2°54.669 332.1 10.2 331 10
2004-02-03 07:58:04 51°14.84 2°54.657 331.8 10.5 331 10.2
2004-02-03 07:58:09 51°14.853 2°54.645 331.6 10.9 330 9.9
2004-02-03 07:58:14 51°14.867 2°54.633 332.2 11.5 331 10
2004-02-03 07:58:18 51°14.878 2°54.622 332.1 11.7 329 10
2004-02-03 07:58:24 51°14.895 2°54.605 331.6 12 329 10
2004-02-03 07:58:30 51°14.912 2°54.588 331.2 12.1 328 9.9
2004-02-03 07:58:34 51°14.924 2°54.576 331.1 12.6 328 9.9
2004-02-03 07:58:40 51°14.942 2°54.559 331.1 12.7 328 9.7
2004-02-03 07:58:44 51°14.955 2°54.547 331.4 12.9 329 9.7
2004-02-03 07:58:50 51°14.973 2°54.529 331.9 12.9 329 9.4
2004-02-03 07:58:54 51°14.986 2°54.518 332.1 13.1 329 9.2
2004-02-03 07:58:59 51°15.002 2°54.503 332.6 13.2 331 9.2
2004-02-03 07:59:04 51°15.018 2°54.489 333.3 13.2 331 9.1
2004-02-03 07:59:08 51°15.031 2°54.478 333.7 13.3 331 9
2004-02-03 07:59:14 51°15.05 2°54.461 333.8 13.4 331 9
2004-02-03 07:59:18 51°15.063 2°54.449 333.8 13.4 331 9
2004-02-03 07:59:24 51°15.083 2°54.432 334 13.4 332 8.9
2004-02-03 07:59:30 51°15.103 2°54.415 333.9 13.4 332 9.1
2004-02-03 07:59:34 51°15.116 2°54.403 333.3 13.5 330 9
2004-02-03 07:59:38 51°15.129 2°54.391 332.9 13.6 330 9
2004-02-03 07:59:44 51°15.148 2°54.372 332.5 13.6 329 9.2
2004-02-03 07:59:50 51°15.168 2°54.354 332.3 13.6 330 9.4
2004-02-03 07:59:54 51°15.181 2°54.341 332.3 13.7 329 9.2
2004-02-03 07:59:59 51°15.197 2°54.326 332.4 13.7 330 9.3
2004-02-03 08:00:04 51°15.214 2°54.311 332.8 13.7 330 9.3
2004-02-03 08:00:10 51°15.234 2°54.293 333.1 13.8 331 9.5
2004-02-03 08:00:14 51°15.248 2°54.281 333.6 13.8 330 9.6
2004-02-03 08:00:19 51°15.264 2°54.266 333.7 13.8 331 9.5
2004-02-03 08:00:24 51°15.281 2°54.252 333.9 13.9 331 9.6
2004-02-03 08:00:29 51°15.298 2°54.237 334.4 13.9 331 9.6
2004-02-03 08:00:34 51°15.315 2°54.222 334.2 13.9 331 9.7
2004-02-03 08:00:39 51°15.332 2°54.207 334.5 14 331 9.8
2004-02-03 08:00:44 51°15.349 2°54.192 334.3 14 330 9.9
2004-02-03 08:00:49 51°15.366 2°54.176 334.3 14 331 10
2004-02-03 08:00:54 51°15.383 2°54.162 334.4 14 331 10.1
2004-02-03 08:01:00 51°15.403 2°54.143 334.4 14 330 10.2
2004-02-03 08:01:04 51°15.417 2°54.131 333.8 13.9 331 10.1
2004-02-03 08:01:10 51°15.437 2°54.113 333.8 14 331 10.3
2004-02-03 08:01:14 51°15.45 2°54.101 334.2 14 330 10.3
2004-02-03 08:01:19 51°15.467 2°54.086 333.8 14 330 10.3
2004-02-03 08:01:24 51°15.484 2°54.07 334.2 14 331 10.5
2004-02-03 08:01:28 51°15.498 2°54.058 334.4 14 330 10.6
2004-02-03 08:01:34 51°15.518 2°54.04 334.4 14.1 331 10.7
2004-02-03 08:01:38 51°15.532 2°54.028 334.2 14.1 331 10.8
2004-02-03 08:01:44 51°15.552 2°54.01 334.1 13.9 331 10.6
2004-02-03 08:01:49 51°15.569 2°53.995 334.3 14.1 330 10.7
2004-02-03 08:01:54 51°15.586 2°53.98 334.5 14.1 331 10.9
2004-02-03 08:01:59 51°15.603 2°53.965 334.5 14.2 331 11
2004-02-03 08:02:04 51°15.62 2°53.949 334 14.1 330 11
2004-02-03 08:02:08 51°15.633 2°53.936 333.4 13.9 329 11.2
2004-02-03 08:02:14 51°15.653 2°53.917 333.1 14 329 11.4
2004-02-03 08:02:20 51°15.673 2°53.898 333 14 329 11.2
2004-02-03 08:02:24 51°15.686 2°53.885 333 13.9 329 11.5
2004-02-03 08:02:30 51°15.706 2°53.866 333.1 14 329 11.6
2004-02-03 08:02:34 51°15.719 2°53.854 333.5 14 330 11.5
2004-02-03 08:02:39 51°15.736 2°53.838 334.1 13.9 330 11.6
2004-02-03 08:02:44 51°15.753 2°53.823 334.3 13.9 330 11.6
2004-02-03 08:02:48 51°15.767 2°53.811 334.5 13.9 331 11.7
2004-02-03 08:02:54 51°15.787 2°53.793 334.4 14 331 11.9
2004-02-03 08:03:00 51°15.807 2°53.775 334.6 13.9 330 11.7
2004-02-03 08:03:04 51°15.82 2°53.762 335 14 330 11.8
2004-02-03 08:03:09 51°15.837 2°53.747 334.5 13.9 330 11.9
2004-02-03 08:03:14 51°15.854 2°53.732 334.4 13.9 330 11.9
2004-02-03 08:03:19 51°15.871 2°53.717 334.5 13.9 331 12
2004-02-03 08:03:24 51°15.887 2°53.701 334.8 14 330 12.1
2004-02-03 08:03:28 51°15.901 2°53.689 334.5 14 330 12.1
2004-02-03 08:03:34 51°15.921 2°53.671 334.5 14 330 12.2
2004-02-03 08:03:38 51°15.934 2°53.658 334.5 14 331 12.3
2004-02-03 08:03:44 51°15.955 2°53.64 334.5 14 330 12.2
2004-02-03 08:03:50 51°15.975 2°53.622 334.5 13.9 330 12.3
2004-02-03 08:03:54 51°15.988 2°53.609 334.2 14 330 12.3
2004-02-03 08:03:58 51°16.002 2°53.597 334.1 13.9 330 12.4
2004-02-03 08:04:04 51°16.021 2°53.578 333.9 13.9 329 12.4
2004-02-03 08:04:09 51°16.038 2°53.562 334 13.9 330 12.5
2004-02-03 08:04:14 51°16.055 2°53.547 334.2 13.9 330 12.3
2004-02-03 08:04:19 51°16.071 2°53.532 334.5 13.9 331 12.3
2004-02-03 08:04:24 51°16.088 2°53.517 334.7 13.8 331 12.5
2004-02-03 08:04:30 51°16.108 2°53.499 335 13.8 331 12.4
2004-02-03 08:04:34 51°16.121 2°53.487 334.9 13.7 330 12.4
2004-02-03 08:04:39 51°16.138 2°53.472 334.7 13.8 331 12.6
2004-02-03 08:04:44 51°16.154 2°53.457 334.5 13.8 330 12.6
2004-02-03 08:04:49 51°16.171 2°53.442 334.1 13.7 329 12.7
2004-02-03 08:04:54 51°16.188 2°53.426 334.5 13.8 329 12.8
2004-02-03 08:04:59 51°16.204 2°53.411 334.1 13.9 330 12.8
2004-02-03 08:05:04 51°16.221 2°53.396 334 13.9 330 12.6
2004-02-03 08:05:10 51°16.241 2°53.378 334.5 13.8 331 12.7
2004-02-03 08:05:14 51°16.254 2°53.366 334.5 13.8 330 13
2004-02-03 08:05:19 51°16.271 2°53.351 334.6 13.7 331 12.8
2004-02-03 08:05:24 51°16.287 2°53.337 334.3 13.7 330 12.8
2004-02-03 08:05:29 51°16.303 2°53.321 334.4 13.7 331 12.9
2004-02-03 08:05:34 51°16.32 2°53.307 333.9 13.7 330 13
2004-02-03 08:05:39 51°16.336 2°53.291 334.2 13.7 330 13.1
2004-02-03 08:05:44 51°16.353 2°53.277 334.3 13.7 330 13.1
2004-02-03 08:05:49 51°16.369 2°53.262 334.5 13.8 330 13.2
2004-02-03 08:05:54 51°16.386 2°53.247 334.6 13.8 332 13.1
2004-02-03 08:05:59 51°16.403 2°53.232 334.5 13.7 331 13
2004-02-03 08:06:04 51°16.419 2°53.217 334.5 13.7 331 13
2004-02-03 08:06:10 51°16.439 2°53.199 334.4 13.6 331 12.7
2004-02-03 08:06:14 51°16.452 2°53.187 334.2 13.7 331 12.9
2004-02-03 08:06:19 51°16.468 2°53.172 334.3 13.6 330 12.8
2004-02-03 08:06:24 51°16.485 2°53.157 334.3 13.7 330 12.9
2004-02-03 08:06:28 51°16.498 2°53.145 334.2 13.7 330 13
2004-02-03 08:06:34 51°16.518 2°53.127 334.2 13.7 330 12.9
2004-02-03 08:06:38 51°16.53 2°53.115 334.2 13.6 330 12.9
2004-02-03 08:06:44 51°16.55 2°53.097 334.2 13.6 330 12.7
2004-02-03 08:06:50 51°16.57 2°53.079 334.1 13.6 330 12.5
2004-02-03 08:06:54 51°16.583 2°53.067 334.5 13.5 330 12.4
2004-02-03 08:06:59 51°16.599 2°53.052 334.6 13.5 330 12.5
2004-02-03 08:07:04 51°16.615 2°53.036 334.4 13.5 329 12.5
2004-02-03 08:07:09 51°16.632 2°53.021 334.1 13.6 330 12.4
2004-02-03 08:07:14 51°16.647 2°53.006 333.9 13.6 329 12.3
2004-02-03 08:07:19 51°16.663 2°52.991 333.8 13.5 329 12.1
2004-02-03 08:07:24 51°16.68 2°52.975 333.9 13.6 330 12.2
2004-02-03 08:07:29 51°16.696 2°52.96 333.8 13.6 330 12
2004-02-03 08:07:34 51°16.713 2°52.945 333.8 13.5 329 11.9
2004-02-03 08:07:40 51°16.733 2°52.93 335 13.6 333 11.6
2004-02-03 08:07:44 51°16.747 2°52.92 337.9 13.5 336 11.4
2004-02-03 08:07:50 51°16.768 2°52.906 340.2 13.5 337 11.2
2004-02-03 08:07:54 51°16.782 2°52.897 342 13.5 338 10.9
2004-02-03 08:07:59 51°16.799 2°52.887 342.8 13.4 339 10.4
2004-02-03 08:08:04 51°16.817 2°52.877 344.1 13.4 340 10.1
2004-02-03 08:08:08 51°16.831 2°52.869 344.2 13.4 340 9.8
2004-02-03 08:08:14 51°16.852 2°52.857 345.4 13.2 341 9.9
2004-02-03 08:08:18 51°16.866 2°52.85 345.6 13.2 341 9.7
2004-02-03 08:08:24 51°16.887 2°52.838 346 13.5 340 9.9
2004-02-03 08:08:30 51°16.908 2°52.826 345.4 13.3 340 10
2004-02-03 08:08:34 51°16.922 2°52.818 344.8 13.5 340 9.9
2004-02-03 08:08:39 51°16.94 2°52.808 344.9 13.5 340 10
2004-02-03 08:08:44 51°16.957 2°52.798 344.9 13.6 341 10.1
2004-02-03 08:08:50 51°16.979 2°52.786 345.2 13.6 340 10.3
2004-02-03 08:08:54 51°16.993 2°52.778 345.4 13.7 340 10.4
2004-02-03 08:08:58 51°17.007 2°52.77 345.2 13.7 341 10.6
2004-02-03 08:09:04 51°17.029 2°52.758 344.9 13.7 340 10.5
2004-02-03 08:09:10 51°17.05 2°52.745 344.8 13.7 340 10.6
2004-02-03 08:09:14 51°17.065 2°52.737 344.7 13.6 340 10.8
2004-02-03 08:09:20 51°17.087 2°52.725 345.1 13.7 340 10.8
2004-02-03 08:09:24 51°17.101 2°52.716 344.9 13.8 340 11
2004-02-03 08:09:30 51°17.122 2°52.704 345 13.8 341 10.8
2004-02-03 08:09:34 51°17.136 2°52.696 345 13.7 340 10.4
2004-02-03 08:09:39 51°17.154 2°52.687 345.4 13.6 343 10.4
2004-02-03 08:09:44 51°17.173 2°52.679 347 13.6 343 10.5
2004-02-03 08:09:48 51°17.187 2°52.672 348.4 13.7 345 10.3
2004-02-03 08:09:54 51°17.209 2°52.663 349.4 13.7 345 10.4
2004-02-03 08:09:58 51°17.224 2°52.657 349.7 13.6 346 10.5
2004-02-03 08:10:04 51°17.246 2°52.649 350.5 13.7 345 10.7
2004-02-03 08:10:10 51°17.268 2°52.641 350.4 13.6 346 10.4
2004-02-03 08:10:14 51°17.283 2°52.634 350.9 13.7 346 10.5
2004-02-03 08:10:19 51°17.301 2°52.628 351 13.7 347 10.6
2004-02-03 08:10:24 51°17.32 2°52.62 350.8 13.7 345 10.5
2004-02-03 08:10:30 51°17.342 2°52.611 350.7 13.7 347 10.7
2004-02-03 08:10:34 51°17.357 2°52.606 349.8 13.7 347 10.7
2004-02-03 08:10:39 51°17.375 2°52.598 350.7 13.8 346 10.8
2004-02-03 08:10:44 51°17.393 2°52.59 350 13.7 345 10.8
2004-02-03 08:10:49 51°17.412 2°52.583 349.8 13.7 346 10.9
2004-02-03 08:10:54 51°17.431 2°52.576 349.9 13.8 345 11
2004-02-03 08:10:59 51°17.449 2°52.57 351.2 13.7 349 11.2
2004-02-03 08:11:04 51°17.468 2°52.566 353.5 13.7 349 11
2004-02-03 08:11:09 51°17.487 2°52.562 355.5 13.7 353 10.9
2004-02-03 08:11:14 51°17.506 2°52.56 357.8 13.8 355 10.9
2004-02-03 08:11:19 51°17.525 2°52.558 359.3 13.7 356 11
2004-02-03 08:11:24 51°17.544 2°52.556 0.7 13.7 356 11
2004-02-03 08:11:30 51°17.567 2°52.554 0.7 13.8 356 11
2004-02-03 08:11:34 51°17.582 2°52.552 0.5 13.7 356 11.6
2004-02-03 08:11:39 51°17.601 2°52.55 1.1 13.7 356 11.1
2004-02-03 08:11:44 51°17.62 2°52.548 0.7 13.8 356 11.1
2004-02-03 08:11:49 51°17.639 2°52.546 0.4 13.8 357 11.2
2004-02-03 08:11:54 51°17.658 2°52.544   13.8 356 11.1
2004-02-03 08:11:58 51°17.673 2°52.542 0.4 13.7 355 11
2004-02-03 08:12:04 51°17.696 2°52.539 1.1 13.8 355 10.9
2004-02-03 08:12:09 51°17.715 2°52.537 0.5 13.8 356 10.9
2004-02-03 08:12:14 51°17.734 2°52.535   13.7 357 10.9
2004-02-03 08:12:19 51°17.753 2°52.532 0.5 13.8 355 10.9
2004-02-03 08:12:24 51°17.772 2°52.53 359.8 13.8 355 11.1
2004-02-03 08:12:30 51°17.795 2°52.527 359.9 13.8 355 11.1
2004-02-03 08:12:34 51°17.81 2°52.525 0.3 13.8 355 11.3
2004-02-03 08:12:39 51°17.829 2°52.523   13.7 357 11.3
2004-02-03 08:12:44 51°17.848 2°52.521 0.7 13.8 355 11.2
2004-02-03 08:12:48 51°17.864 2°52.52 1 13.8 357 11.2
2004-02-03 08:12:54 51°17.886 2°52.517 0.9 13.8 356 11.2
2004-02-03 08:12:59 51°17.905 2°52.515 1 13.8 356 11.2
2004-02-03 08:13:04 51°17.925 2°52.513 1.1 13.8 355 11.4
2004-02-03 08:13:09 51°17.943 2°52.511   13.7 355 11.3
2004-02-03 08:13:14 51°17.963 2°52.51 0.6 13.8 356 11.4
2004-02-03 08:13:19 51°17.982 2°52.509   13.7 357 11.2
2004-02-03 08:13:24 51°18.001 2°52.508 4 13.9 356 11.3
2004-02-03 08:13:29 51°18.02 2°52.511 3.1 13.7 3 11.3
2004-02-03 08:13:34 51°18.039 2°52.511 7.2 13.8   11.3
2004-02-03 08:13:39 51°18.059 2°52.514 7.2 13.8 5 11.4
2004-02-03 08:13:44 51°18.078 2°52.516 9.4 13.9 5 11.4
2004-02-03 08:13:50 51°18.1 2°52.522 9.5 13.8 5 11.4
2004-02-03 08:13:54 51°18.116 2°52.522 10.7 13.8 4 11.5
2004-02-03 08:13:59 51°18.135 2°52.529 10.6 13.9 11 11.6
2004-02-03 08:14:04 51°18.154 2°52.533 12.4 13.8 6 11.6
2004-02-03 08:14:10 51°18.177 2°52.542 15.5 14.1 16 11.7
2004-02-03 08:14:14 51°18.192 2°52.549 15 13.9 18 11.6
2004-02-03 08:14:19 51°18.21 2°52.56 21 13.9 22 11.7
2004-02-03 08:14:24 51°18.227 2°52.575 25.1 14.1 26 11.8
2004-02-03 08:14:29 51°18.245 2°52.586 27.6 14.1 22 11.7
2004-02-03 08:14:34 51°18.262 2°52.602 29.6 14 29 11.8
2004-02-03 08:14:38 51°18.275 2°52.614 32.5 14.1 30 11.8
2004-02-03 08:14:44 51°18.294 2°52.636 36.2 14.1 36 11.9
2004-02-03 08:14:49 51°18.307 2°52.658 39.7 13.5 44 11.9
2004-02-03 08:14:54 51°18.322 2°52.678 47.7 14 40 11.9
2004-02-03 08:14:59 51°18.335 2°52.701 46.9 14.2 45 11.9
2004-02-03 08:15:04 51°18.349 2°52.722 48.5 14.2 45 11.9
2004-02-03 08:15:10 51°18.364 2°52.751 49.8 14.1 46 12
2004-02-03 08:15:14 51°18.374 2°52.769 52.2 13.7 49 12.1
2004-02-03 08:15:19 51°18.386 2°52.794 54.1 13.7 53 12.1
2004-02-03 08:15:24 51°18.398 2°52.817 56.3 13.9 51 12.1
2004-02-03 08:15:29 51°18.411 2°52.841 54.3 14.1 49 12
2004-02-03 08:15:34 51°18.424 2°52.865 52.7 14.1 50 12.1
2004-02-03 08:15:39 51°18.435 2°52.89 54.3 14.2 53 12
2004-02-03 08:15:44 51°18.447 2°52.915 56.4 14.1 53 12.1
2004-02-03 08:15:49 51°18.458 2°52.941 57.3 13.9 56 12.1
2004-02-03 08:15:54 51°18.469 2°52.967 60.6 14.1 58 12.1
2004-02-03 08:15:59 51°18.481 2°52.992 58.7 14.2 52 12.2
2004-02-03 08:16:04 51°18.491 2°53.018 58.7 13.9 58 12.1
2004-02-03 08:16:09 51°18.503 2°53.043 59.3 13.9 58 12
2004-02-03 08:16:14 51°18.515 2°53.069 57.4 14.3 53 12.1
2004-02-03 08:16:19 51°18.525 2°53.095 58.7 14 58 12.1
2004-02-03 08:16:24 51°18.536 2°53.121 60.9 14.1 57 12.2
2004-02-03 08:16:29 51°18.546 2°53.148 61.7 14.3 59 12.2
2004-02-03 08:16:34 51°18.556 2°53.176 63.8 14.3 62 12.2
2004-02-03 08:16:39 51°18.565 2°53.204 65.1 14.1 62 12.2
2004-02-03 08:16:44 51°18.573 2°53.232 67.2 13.9 64 12.3
2004-02-03 08:16:48 51°18.58 2°53.254 68.3 14.2 65 12.2
2004-02-03 08:16:54 51°18.59 2°53.29 69.2 14.8 65 12.1
2004-02-03 08:16:59 51°18.599 2°53.32 68.9 14.7 65 12.1
2004-02-03 08:17:04 51°18.607 2°53.348 69.6 14.1 67 12.2
2004-02-03 08:17:10 51°18.615 2°53.382 70.7 13.8 67 12.2
2004-02-03 08:17:14 51°18.621 2°53.406 72.3 14.4 67 12.1
2004-02-03 08:17:19 51°18.63 2°53.436 71.4 14.9 66 12.1
2004-02-03 08:17:24 51°18.638 2°53.466 70.3 14.8 66 12.1
2004-02-03 08:17:28 51°18.645 2°53.489 69.6 14.6 65 12.2
2004-02-03 08:17:34 51°18.653 2°53.525 71.1 14.2 68 12.2
2004-02-03 08:17:39 51°18.661 2°53.553 72 14.2 68 12.2
2004-02-03 08:17:44 51°18.667 2°53.583 72.8 13.9 69 12.3
2004-02-03 08:17:49 51°18.674 2°53.611 73.7 13.9 69 12.3
2004-02-03 08:17:54 51°18.682 2°53.642 74 14.5 69 12.1
2004-02-03 08:17:59 51°18.692 2°53.67 70.4 14.8 62 12.1
2004-02-03 08:18:04 51°18.699 2°53.698 66.8 14.1 64 12.2
2004-02-03 08:18:09 51°18.707 2°53.726 68.8 14.1 64 12.2
2004-02-03 08:18:14 51°18.714 2°53.755 71.6 13.8 68 12.1
2004-02-03 08:18:19 51°18.723 2°53.783 69.2 14.3 63 12.2
2004-02-03 08:18:24 51°18.731 2°53.812 69.1 14.1 67 12.1
2004-02-03 08:18:29 51°18.739 2°53.842 70.9 14.6 66 12.1
2004-02-03 08:18:34 51°18.748 2°53.871 69.5 14.5 64 12.2
2004-02-03 08:18:38 51°18.755 2°53.893 68.9 13.9 65 12.3
2004-02-03 08:18:44 51°18.764 2°53.926 70 13.7 66 12.2
2004-02-03 08:18:50 51°18.774 2°53.961 70 14.1 65 12.2
2004-02-03 08:18:54 51°18.78 2°53.984 69.7 14.5 66 12.2
2004-02-03 08:18:59 51°18.788 2°54.014 71.1 14.5 69 12.2
2004-02-03 08:19:04 51°18.795 2°54.043 72 14.3 67 12.3
2004-02-03 08:19:10 51°18.804 2°54.078 72.5 14.1 68 12.2
2004-02-03 08:19:14 51°18.811 2°54.101 71.1 14.4 65 12.2
2004-02-03 08:19:19 51°18.821 2°54.129 69 14.5 63 12.1
2004-02-03 08:19:24 51°18.829 2°54.157 66.9 14.1 63 12.3
2004-02-03 08:19:29 51°18.836 2°54.185 68.9 13.7 67 12.3
2004-02-03 08:19:34 51°18.844 2°54.215 71.8 14.4 67 12.1
2004-02-03 08:19:39 51°18.852 2°54.244 71.1 14.5 66 12.2
2004-02-03 08:19:44 51°18.86 2°54.273 70 14.2 66 12.2
2004-02-03 08:19:48 51°18.866 2°54.296 70.5 14.1 67 12.2
2004-02-03 08:19:54 51°18.875 2°54.33 71.1 14 68 12.3
2004-02-03 08:19:59 51°18.882 2°54.359 71.8 13.9 69 12.3
2004-02-03 08:20:04 51°18.89 2°54.387 72.7 14 68 12.2
2004-02-03 08:20:10 51°18.899 2°54.423 72.5 14.3 68 12.2
2004-02-03 08:20:14 51°18.906 2°54.446 70.7 14.5 66 12.2
2004-02-03 08:20:19 51°18.913 2°54.475 70.2 14.2 67 12.1
2004-02-03 08:20:24 51°18.92 2°54.504 71.8 13.9 68 12.3
2004-02-03 08:20:28 51°18.927 2°54.527 72.6 13.9 68 12.2
2004-02-03 08:20:34 51°18.937 2°54.561 69.7 14.4 64 12.2
2004-02-03 08:20:39 51°18.946 2°54.59 68.8 14.4 65 12.3
2004-02-03 08:20:44 51°18.954 2°54.618 68.5 14.4 65 12.2
2004-02-03 08:20:48 51°18.961 2°54.642 69.4 14.4 66 12.2
2004-02-03 08:20:54 51°18.971 2°54.676 70.2 14.4 65 12.3
2004-02-03 08:20:58 51°18.977 2°54.7 69.8 14.5 67 12.2
2004-02-03 08:21:04 51°18.988 2°54.735 70.6 14.6 63 12.3
2004-02-03 08:21:08 51°18.995 2°54.758 68.5 14.6 64 12.3
2004-02-03 08:21:14 51°19.005 2°54.792 68.5 14.4 63 12.3
2004-02-03 08:21:19 51°19.014 2°54.821 68.3 14.4 65 12.3
2004-02-03 08:21:24 51°19.023 2°54.85 68.5 14.5 64 12.2
2004-02-03 08:21:29 51°19.031 2°54.879 68.2 14.5 64 12.2
2004-02-03 08:21:34 51°19.04 2°54.909 69.8 14.8 65 12.2
2004-02-03 08:21:38 51°19.047 2°54.933 69.7 15.1 65 12.1
2004-02-03 08:21:44 51°19.058 2°54.968 68.2 14.8 63 12.2
2004-02-03 08:21:48 51°19.064 2°54.991 68.8 14.2 67 12.2
2004-02-03 08:21:54 51°19.073 2°55.026 70.6 14.3 67 12.2
2004-02-03 08:21:59 51°19.081 2°55.056 71.6 14.7 67 12.2
2004-02-03 08:22:04 51°19.09 2°55.085 70.7 14.6 65 12.3
2004-02-03 08:22:08 51°19.096 2°55.108 69.6 14.4 65 12.3
2004-02-03 08:22:14 51°19.107 2°55.143 69.9 14.5 64 12.2
2004-02-03 08:22:18 51°19.114 2°55.166 68.6 14.6 62 12.2
2004-02-03 08:22:24 51°19.125 2°55.199 66.5 14.1 62 12.4
2004-02-03 08:22:28 51°19.132 2°55.221 66.2 14.1 64 12.3
2004-02-03 08:22:34 51°19.143 2°55.257 68.1 14.8 64 12.2
2004-02-03 08:22:39 51°19.152 2°55.286 68.2 14.8 64 12.3
2004-02-03 08:22:44 51°19.159 2°55.315 68.3 14.3 65 12.3
2004-02-03 08:22:49 51°19.167 2°55.344 71.8 14.3 65 12.3
2004-02-03 08:22:54 51°19.176 2°55.373 71.1 14.4 65 12.2
2004-02-03 08:22:59 51°19.183 2°55.403 70 14.4 68 12.2
2004-02-03 08:23:04 51°19.191 2°55.433 71.2 14.7 66 12.2
2004-02-03 08:23:10 51°19.201 2°55.468 70.6 14.7 66 12.3
2004-02-03 08:23:14 51°19.207 2°55.491 70.6 14.3 67 12.2
2004-02-03 08:23:19 51°19.214 2°55.522 72.3 14.5 70 12.2
2004-02-03 08:23:24 51°19.222 2°55.552 73.2 14.8 68 12.1
2004-02-03 08:23:30 51°19.231 2°55.587 71.8 14.5 68 12.3
2004-02-03 08:23:34 51°19.238 2°55.61 71.9 14.2 67 12.2
2004-02-03 08:23:39 51°19.245 2°55.639 71.2 14.3 66 12.2
2004-02-03 08:23:44 51°19.254 2°55.668 70.4 14.4 66 12.1
2004-02-03 08:23:49 51°19.263 2°55.698 69.4 14.7 65 12
2004-02-03 08:23:54 51°19.271 2°55.728 69.3 14.8 65 12
2004-02-03 08:23:59 51°19.279 2°55.758 69.6 14.7 67 12.1
2004-02-03 08:24:04 51°19.285 2°55.788 72.3 14.5 70 12.2
2004-02-03 08:24:08 51°19.291 2°55.811 73.8 14.2 70 12.2
2004-02-03 08:24:14 51°19.3 2°55.847 74.4 14.4 68 12.1
2004-02-03 08:24:19 51°19.308 2°55.876 73.2 14.5 67 12.1
2004-02-03 08:24:24 51°19.316 2°55.904 70.6 14.5 67 12
2004-02-03 08:24:30 51°19.326 2°55.939 69.5 14.2 66 12.1
2004-02-03 08:24:34 51°19.332 2°55.963 70.3 14.5 67 12
2004-02-03 08:24:39 51°19.34 2°55.993 71.5 14.7 68 12
2004-02-03 08:24:44 51°19.347 2°56.024 72 14.7 68 12
2004-02-03 08:24:48 51°19.354 2°56.047 71.9 14.7 67 12
2004-02-03 08:24:54 51°19.363 2°56.083 71.2 14.4 67 12.1
2004-02-03 08:25:00 51°19.371 2°56.118 71.5 14.2 69 12.1
2004-02-03 08:25:04 51°19.378 2°56.141 73.1 14.2 68 12.1
2004-02-03 08:25:08 51°19.384 2°56.166 72.5 14.9 67 11.9
2004-02-03 08:25:14 51°19.395 2°56.203 71.4 15.5 65 11.8
2004-02-03 08:25:19 51°19.403 2°56.233 69.2 15 64 11.9
2004-02-03 08:25:24 51°19.411 2°56.262 69.9 14.2 68 12
2004-02-03 08:25:28 51°19.416 2°56.286 72.2 14.2 68 12
2004-02-03 08:25:34 51°19.425 2°56.323 73.1 15 68 11.9
2004-02-03 08:25:38 51°19.433 2°56.348 72.8 15.5 65 11.7
2004-02-03 08:25:44 51°19.443 2°56.384 69.6 15.5 64 11.9
2004-02-03 08:25:48 51°19.45 2°56.407 68.6 14.5 66 12.1
2004-02-03 08:25:54 51°19.458 2°56.441 70.4 14.1 68 12
2004-02-03 08:26:00 51°19.469 2°56.478 72.3 15 67 11.8
2004-02-03 08:26:04 51°19.476 2°56.503 70.7 15.3 64 11.8
2004-02-03 08:26:09 51°19.484 2°56.532 68.6 14.5 65 12
2004-02-03 08:26:14 51°19.492 2°56.559 69.3 14.1 66 12.1
2004-02-03 08:26:19 51°19.499 2°56.589 71.8 14.3 68 11.9
2004-02-03 08:26:24 51°19.507 2°56.619 71.8 14.6 68 11.8
2004-02-03 08:26:28 51°19.513 2°56.644 71.8 14.8 68 11.8
2004-02-03 08:26:34 51°19.523 2°56.68 72.5 14.7 67 11.9
2004-02-03 08:26:39 51°19.53 2°56.71 71.8 14.6 67 11.9
2004-02-03 08:26:44 51°19.538 2°56.74 72.5 14.7 69 11.9
2004-02-03 08:26:48 51°19.544 2°56.764 71.9 14.6 68 11.9
2004-02-03 08:26:54 51°19.553 2°56.801 73.3 14.9 68 11.7
2004-02-03 08:26:59 51°19.562 2°56.83 71.5 15 64 11.8
2004-02-03 08:27:04 51°19.57 2°56.86 69.3 15 64 11.9
2004-02-03 08:27:09 51°19.578 2°56.889 70.6 14.5 67 11.8
2004-02-03 08:27:14 51°19.587 2°56.919 70.7 14.7 67 11.8
2004-02-03 08:27:19 51°19.595 2°56.948 69.3 14.5 65 11.9
2004-02-03 08:27:24 51°19.602 2°56.977 70.4 14 68 11.9
2004-02-03 08:27:29 51°19.611 2°57.006 72 14 68 11.8
2004-02-03 08:27:34 51°19.619 2°57.037 71.1 15 66 11.8
2004-02-03 08:27:39 51°19.627 2°57.066 69.8 14.6 65 11.8
2004-02-03 08:27:44 51°19.634 2°57.096 71.1 14.3 68 11.7
2004-02-03 08:27:50 51°19.643 2°57.133 72.6 14.6 68 11.6
2004-02-03 08:27:54 51°19.65 2°57.157 72.3 15.1 66 11.7
2004-02-03 08:27:59 51°19.657 2°57.188 71.2 14.8 69 11.7
2004-02-03 08:28:04 51°19.665 2°57.218 72.7 14.7 69 11.7
2004-02-03 08:28:08 51°19.67 2°57.243 73.4 14.6 69 11.8
2004-02-03 08:28:14 51°19.679 2°57.278 74.1 14.4 69 11.9
2004-02-03 08:28:20 51°19.687 2°57.315 74.4 14.5 70 11.8
2004-02-03 08:28:24 51°19.693 2°57.339 73.7 14.8 67 11.7
2004-02-03 08:28:29 51°19.701 2°57.369 71.8 14.7 68 11.7
2004-02-03 08:28:34 51°19.709 2°57.399 71.8 14.7 68 11.6
2004-02-03 08:28:39 51°19.718 2°57.429 70.3 15.1 65 11.7
2004-02-03 08:28:44 51°19.726 2°57.459 69.5 14.7 66 11.8
2004-02-03 08:28:49 51°19.734 2°57.489 71.3 14.7 66 11.7
2004-02-03 08:28:54 51°19.742 2°57.519 71.6 14.8 67 11.6
2004-02-03 08:28:59 51°19.749 2°57.55 72.3 14.6 70 11.8
2004-02-03 08:29:04 51°19.755 2°57.58 73.6 14.4 70 11.7
2004-02-03 08:29:09 51°19.762 2°57.61 75.8 14.6 72 11.7
2004-02-03 08:29:14 51°19.769 2°57.641 75.6 14.9 68 11.6
2004-02-03 08:29:19 51°19.777 2°57.671 72.5 14.8 67 11.6
2004-02-03 08:29:24 51°19.785 2°57.702 72.1 14.9 68 11.6
2004-02-03 08:29:30 51°19.796 2°57.738 70.7 15 66 11.6
2004-02-03 08:29:34 51°19.802 2°57.761 69.6 14.6 67 11.7
2004-02-03 08:29:39 51°19.81 2°57.792 70.8 14.7 68 11.6
2004-02-03 08:29:44 51°19.818 2°57.822 71.8 15.1 66 11.6
2004-02-03 08:29:49 51°19.827 2°57.852 70.6 15.2 66 11.6
2004-02-03 08:29:54 51°19.836 2°57.882 69.3 14.6 66 11.5
2004-02-03 08:29:59 51°19.843 2°57.911 69.9 14.5 67 11.5
2004-02-03 08:30:04 51°19.851 2°57.941 70.7 14.5 68 11.6
2004-02-03 08:30:08 51°19.856 2°57.965 72.8 14.5 70 11.6
2004-02-03 08:30:14 51°19.865 2°58.003 74.6 15.1 69 11.5
2004-02-03 08:30:18 51°19.872 2°58.028 73.7 15.3 67 11.4
2004-02-03 08:30:24 51°19.883 2°58.064 70.7 15 65 11.5
2004-02-03 08:30:29 51°19.891 2°58.093 69.5 14.6 65 11.6
2004-02-03 08:30:34 51°19.899 2°58.123 69.5 14.5 65 11.5
2004-02-03 08:30:39 51°19.907 2°58.154 71.1 15.1 68 11.4
2004-02-03 08:30:44 51°19.916 2°58.185 70.9 15.3 66 11.4
2004-02-03 08:30:48 51°19.922 2°58.209 70.4 14.7 68 11.5
2004-02-03 08:30:54 51°19.93 2°58.244 72.5 14.1 70 11.6
2004-02-03 08:30:59 51°19.937 2°58.274 74.2 14.4 70 11.5
2004-02-03 08:31:04 51°19.946 2°58.305 73.5 15.1 67 11.3
2004-02-03 08:31:09 51°19.955 2°58.337 70.7 15.5 66 11.3
2004-02-03 08:31:14 51°19.963 2°58.366 68.7 14.7 65 11.4
2004-02-03 08:31:19 51°19.97 2°58.395 69.7 14.2 68 11.5
2004-02-03 08:31:24 51°19.977 2°58.424 71.8 14.3 69 11.5
2004-02-03 08:31:29 51°19.984 2°58.456 74.1 14.9 70 11.3
2004-02-03 08:31:34 51°19.992 2°58.488 74.7 15.3 70 11.3
2004-02-03 08:31:39 51°19.999 2°58.519 73.2 15.2 69 11.4
2004-02-03 08:31:44 51°20.007 2°58.55 73.3 14.9 70 11.3
2004-02-03 08:31:50 51°20.014 2°58.587 74 14.9 70 11.4
2004-02-03 08:31:54 51°20.019 2°58.612 75.3 14.6 71 11.4
2004-02-03 08:31:59 51°20.025 2°58.644 77.9 15.1 73 11.3
2004-02-03 08:32:04 51°20.031 2°58.677 78.2 15.6 73 11.3
2004-02-03 08:32:09 51°20.038 2°58.709 76.4 15.3 71 11.3
2004-02-03 08:32:14 51°20.045 2°58.739 75.1 14.4 72 11.4
2004-02-03 08:32:19 51°20.051 2°58.769 76 14.3 72 11.4
2004-02-03 08:32:24 51°20.056 2°58.801 77.6 14.8 73 11.2
2004-02-03 08:32:30 51°20.065 2°58.839 76.8 15.3 72 11.2
2004-02-03 08:32:34 51°20.071 2°58.865 74.7 15 71 11.3
2004-02-03 08:32:39 51°20.078 2°58.895 74.8 14.6 70 11.3
2004-02-03 08:32:44 51°20.084 2°58.926 75.4 14.6 72 11.3
2004-02-03 08:32:50 51°20.093 2°58.963 75.7 14.6 72 11.2
2004-02-03 08:32:54 51°20.099 2°58.988 74.3 15.1 68 11.2
2004-02-03 08:32:59 51°20.107 2°59.019 72.6 15.3 67 11.1
2004-02-03 08:33:04 51°20.117 2°59.05 70.5 15.5 65 11.1
2004-02-03 08:33:09 51°20.126 2°59.08 67.7 15.1 65 11.2
2004-02-03 08:33:14 51°20.133 2°59.109 68.2 14.1 69 11.3
2004-02-03 08:33:19 51°20.139 2°59.139 72.3 14 72 11.3
2004-02-03 08:33:24 51°20.146 2°59.17 75.9 14.7 71 11.2
2004-02-03 08:33:29 51°20.155 2°59.201 73.4 15.3 68 11.2
2004-02-03 08:33:34 51°20.163 2°59.231 71.8 14.7 67 11.2
2004-02-03 08:33:39 51°20.171 2°59.26 70.5 14.3 66 11.3
2004-02-03 08:33:44 51°20.179 2°59.29 70.9 14.7 66 11.1
2004-02-03 08:33:48 51°20.186 2°59.314 70.2 14.9 65 11.1
2004-02-03 08:33:54 51°20.195 2°59.35 69.6 14.8 67 11.1
2004-02-03 08:33:59 51°20.203 2°59.38 70.7 14.5 68 11.2
2004-02-03 08:34:04 51°20.209 2°59.409 73.1 14.2 71 11.2
2004-02-03 08:34:10 51°20.218 2°59.445 74.8 14.4 69 11.2
2004-02-03 08:34:14 51°20.225 2°59.468 72.4 14.5 66 11.2
2004-02-03 08:34:19 51°20.232 2°59.498 70.7 14.4 67 11.1
2004-02-03 08:34:24 51°20.24 2°59.528 71.8 14.5 69 11.1
2004-02-03 08:34:30 51°20.248 2°59.563 71.7 14.2 67 11.2
2004-02-03 08:34:34 51°20.253 2°59.586 72.7 14.1 72 11.2
2004-02-03 08:34:39 51°20.26 2°59.618 75.5 14.7 72 11.1
2004-02-03 08:34:44 51°20.267 2°59.648 74.8 14.9 70 11.2
2004-02-03 08:34:48 51°20.272 2°59.673 74.7 14.5 72 11.2
2004-02-03 08:34:54 51°20.28 2°59.708 76 14.2 69 11.2
2004-02-03 08:34:59 51°20.286 2°59.737 74 14 70 11.2
2004-02-03 08:35:04 51°20.293 2°59.767 74.7 14 70 11.1
2004-02-03 08:35:10 51°20.302 2°59.806 75.6 14.9 70 10.9
2004-02-03 08:35:14 51°20.309 2°59.83 72.8 15.1 66 11
2004-02-03 08:35:20 51°20.317 2°59.865 71.1 14.2 69 11.2
2004-02-03 08:35:24 51°20.323 2°59.888 72.9 14.2 69 11.1
2004-02-03 08:35:28 51°20.33 2°59.913 72.5 14.8 67 10.9
2004-02-03 08:35:34 51°20.341 2°59.951 70.1 15.4 65 11
2004-02-03 08:35:39 51°20.349 2°59.98 68.9 14.5 67 11.1
2004-02-03 08:35:44 51°20.355 3°0.009 71.2 14 69 11.1
2004-02-03 08:35:49 51°20.363 3°0.039 73.8 14.8 69 10.9
2004-02-03 08:35:54 51°20.371 3°0.07 71.6 15.3 67 11
2004-02-03 08:35:59 51°20.379 3°0.1 70.5 14.7 68 11.1
2004-02-03 08:36:04 51°20.385 3°0.13 72.6 14.3 70 11.2
2004-02-03 08:36:10 51°20.394 3°0.167 74.4 14.3 70 11.1
2004-02-03 08:36:14 51°20.399 3°0.191 73.9 14.6 71 11.1
2004-02-03 08:36:19 51°20.405 3°0.222 75.4 14.6 72 11.1
2004-02-03 08:36:24 51°20.412 3°0.253 76.1 14.6 72 11.2
2004-02-03 08:36:30 51°20.422 3°0.289 74.4 14.8 69 11.1
2004-02-03 08:36:34 51°20.428 3°0.313 71.8 14.8 68 11.1
2004-02-03 08:36:39 51°20.436 3°0.343 71.2 14.7 68 11.1
2004-02-03 08:36:44 51°20.443 3°0.374 71.9 14.7 68 11.1
2004-02-03 08:36:49 51°20.45 3°0.405 73 14.8 70 11.1
2004-02-03 08:36:54 51°20.457 3°0.436 74.1 14.8 71 11
2004-02-03 08:36:59 51°20.464 3°0.467 74.1 14.8 71 11
2004-02-03 08:37:04 51°20.471 3°0.497 74.6 14.7 70 11.1
2004-02-03 08:37:10 51°20.479 3°0.533 74.1 14.7 70 11.2
2004-02-03 08:37:14 51°20.484 3°0.557 74.5 14.5 71 11
2004-02-03 08:37:19 51°20.493 3°0.588 74.5 15.1 67 11
2004-02-03 08:37:24 51°20.501 3°0.619 70.4 15.2 65 11
2004-02-03 08:37:30 51°20.511 3°0.655 70.5 15.1 68 11
2004-02-03 08:37:34 51°20.516 3°0.679 71 14.5 69 11.1
2004-02-03 08:37:39 51°20.523 3°0.709 72.7 14.4 71 11.2
2004-02-03 08:37:44 51°20.529 3°0.74 74.5 14.7 72 10.9
2004-02-03 08:37:48 51°20.535 3°0.765 75.5 14.9 71 11
2004-02-03 08:37:54 51°20.543 3°0.802 75.3 14.7 71 11
2004-02-03 08:37:59 51°20.55 3°0.833 75 14.6 71 11
2004-02-03 08:38:04 51°20.556 3°0.864 75 14.6 71 10.9
2004-02-03 08:38:10 51°20.565 3°0.902 74.4 15 70 10.9
2004-02-03 08:38:14 51°20.57 3°0.926 73.6 14.7 71 10.9
2004-02-03 08:38:19 51°20.577 3°0.957 74.9 14.7 72 11
2004-02-03 08:38:24 51°20.583 3°0.988 75.6 14.7 72 11
2004-02-03 08:38:30 51°20.592 3°1.025 75.6 14.9 70 11
2004-02-03 08:38:34 51°20.598 3°1.05 74.7 15.2 68 10.9
2004-02-03 08:38:39 51°20.607 3°1.081 71.9 15.4 66 10.8
2004-02-03 08:38:44 51°20.615 3°1.111 69.5 15.1 66 11
2004-02-03 08:38:50 51°20.623 3°1.148 70.7 14.5 70 11
2004-02-03 08:38:54 51°20.629 3°1.172 73.5 14.7 70 11
2004-02-03 08:38:59 51°20.635 3°1.204 74.8 15 71 11
2004-02-03 08:39:04 51°20.643 3°1.236 75.4 15.3 71 10.8
2004-02-03 08:39:08 51°20.649 3°1.261 74.2 15.4 69 10.8
2004-02-03 08:39:14 51°20.658 3°1.298 72.5 14.7 69 10.9
2004-02-03 08:39:20 51°20.665 3°1.334 73.1 14.4 72 11
2004-02-03 08:39:24 51°20.67 3°1.359 75.9 14.4 72 10.9
2004-02-03 08:39:30 51°20.679 3°1.398 76.4 15.1 72 10.8
2004-02-03 08:39:34 51°20.686 3°1.423 73.8 15.3 67 10.9
2004-02-03 08:39:39 51°20.693 3°1.453 71.2 14.8 68 11
2004-02-03 08:39:44 51°20.701 3°1.483 71.8 14.8 68 10.9
2004-02-03 08:39:49 51°20.708 3°1.515 71.9 15.1 70 10.8
2004-02-03 08:39:54 51°20.715 3°1.546 73.2 15.2 70 10.9
2004-02-03 08:39:59 51°20.721 3°1.578 74.6 14.9 73 11
2004-02-03 08:40:04 51°20.727 3°1.609 76.9 14.8 73 11
2004-02-03 08:40:09 51°20.733 3°1.64 76.9 14.8 73 11.1
2004-02-03 08:40:14 51°20.74 3°1.671 76.6 14.8 70 11.1
2004-02-03 08:40:19 51°20.748 3°1.702 74.6 15 69 11.1
2004-02-03 08:40:24 51°20.756 3°1.733 72.4 15.2 67 11
2004-02-03 08:40:30 51°20.766 3°1.769 69.9 15 65 11
2004-02-03 08:40:34 51°20.772 3°1.793 69.8 14.6 67 11
2004-02-03 08:40:39 51°20.78 3°1.823 71.1 14.9 68 11
2004-02-03 08:40:44 51°20.789 3°1.854 71.1 15.2 67 10.9
2004-02-03 08:40:48 51°20.795 3°1.879 70.8 15.2 68 10.9
2004-02-03 08:40:54 51°20.804 3°1.917 71.9 15.3 69 10.9
2004-02-03 08:40:59 51°20.813 3°1.948 72.4 15.4 67 10.9
2004-02-03 08:41:04 51°20.821 3°1.98 70.9 15.4 67 10.9
2004-02-03 08:41:10 51°20.83 3°2.016 71.1 15 69 10.9
2004-02-03 08:41:14 51°20.835 3°2.04 72.5 14.5 71 11.1
2004-02-03 08:41:19 51°20.842 3°2.071 75.1 14.8 71 11.1
2004-02-03 08:41:24 51°20.85 3°2.103 74.4 15.4 69 10.9
2004-02-03 08:41:30 51°20.861 3°2.14 71.4 15.6 65 11
2004-02-03 08:41:34 51°20.868 3°2.164 69 14.8 65 11.2
2004-02-03 08:41:39 51°20.875 3°2.193 68.3 14.2 67 11.3
2004-02-03 08:41:44 51°20.883 3°2.223 71.6 14.4 69 11.1
2004-02-03 08:41:50 51°20.894 3°2.261 71.3 15.6 66 11.1
2004-02-03 08:41:54 51°20.902 3°2.286 68.8 15.6 63 11.1
2004-02-03 08:41:59 51°20.911 3°2.316 66.6 14.9 65 11.3
2004-02-03 08:42:04 51°20.919 3°2.345 68.1 14.4 66 11.4
2004-02-03 08:42:08 51°20.925 3°2.369 70.7 14.7 68 11.2
2004-02-03 08:42:14 51°20.935 3°2.406 71.5 15.3 66 11.2
2004-02-03 08:42:20 51°20.945 3°2.443 70.2 15.2 66 11.3
2004-02-03 08:42:24 51°20.951 3°2.467 70 15.2 66 11.4
2004-02-03 08:42:30 51°20.96 3°2.504 70.6 14.7 67 11.4
2004-02-03 08:42:34 51°20.967 3°2.528 71 14.9 67 11.3
2004-02-03 08:42:39 51°20.975 3°2.559 70.8 15 68 11.4
2004-02-03 08:42:44 51°20.983 3°2.589 71.1 15 68 11.5
2004-02-03 08:42:50 51°20.993 3°2.625 70.5 14.8 67 11.4
2004-02-03 08:42:54 51°21 3°2.648 69.9 14.8 66 11.3
2004-02-03 08:42:59 51°21.009 3°2.678 69.4 14.7 66 11.4
2004-02-03 08:43:04 51°21.017 3°2.709 69.2 14.9 65 11.2
2004-02-03 08:43:09 51°21.026 3°2.739 70.1 14.9 65 11.1
2004-02-03 08:43:14 51°21.035 3°2.769 68.9 15 66 11.2
2004-02-03 08:43:19 51°21.043 3°2.799 69.4 14.7 66 11.3
2004-02-03 08:43:24 51°21.051 3°2.83 71.3 14.8 68 11.2
2004-02-03 08:43:30 51°21.062 3°2.866 70.1 15.2 65 11.2
2004-02-03 08:43:34 51°21.068 3°2.89 69.2 14.5 68 11.4
2004-02-03 08:43:39 51°21.076 3°2.919 70.6 14.5 66 11.4
2004-02-03 08:43:44 51°21.085 3°2.95 69.7 14.9 65 11.3
2004-02-03 08:43:48 51°21.092 3°2.974 69.1 15.1 65 11.4
2004-02-03 08:43:54 51°21.102 3°3.009 68.5 14.7 66 11.4
2004-02-03 08:43:59 51°21.11 3°3.041 69.7 15 68 11.3
2004-02-03 08:44:04 51°21.118 3°3.072 71.3 15 68 11.3
2004-02-03 08:44:09 51°21.126 3°3.102 69.8 15.3 66 11.4
2004-02-03 08:44:14 51°21.133 3°3.133 72.2 14.6 71 11.5
2004-02-03 08:44:19 51°21.139 3°3.165 75.6 15 73 11.4
2004-02-03 08:44:24 51°21.146 3°3.198 76.6 15.6 71 11.2
2004-02-03 08:44:30 51°21.156 3°3.238 75.3 16 69 11.2
2004-02-03 08:44:34 51°21.163 3°3.263 71.8 15.5 66 11.3
2004-02-03 08:44:39 51°21.171 3°3.293 69.6 14.8 67 11.4
2004-02-03 08:44:44 51°21.177 3°3.323 71.8 14.5 70 11.5
2004-02-03 08:44:48 51°21.182 3°3.348 74.4 14.9 73 11.4
2004-02-03 08:44:54 51°21.191 3°3.387 76.5 15.4 70 11.4
2004-02-03 08:44:59 51°21.198 3°3.418 75 15.1 69 11.5
2004-02-03 08:45:04 51°21.206 3°3.449 74.3 15.1 69 11.4
2004-02-03 08:45:10 51°21.216 3°3.486 72.3 15.1 67 11.5
2004-02-03 08:45:14 51°21.222 3°3.51 70.9 15.1 68 11.5
2004-02-03 08:45:19 51°21.23 3°3.541 71.1 15 66 11.5
2004-02-03 08:45:24 51°21.237 3°3.571 70.6 15 66 11.6
2004-02-03 08:45:30 51°21.245 3°3.609 74.2 14.6 71 11.6
2004-02-03 08:45:34 51°21.252 3°3.635 75.2 15.7 68 11.5
2004-02-03 08:45:39 51°21.26 3°3.667 72.3 15.6 66 11.5
2004-02-03 08:45:44 51°21.268 3°3.697 70.1 15.6 66 11.6
2004-02-03 08:45:48 51°21.275 3°3.721 69.9 14.8 67 11.6
2004-02-03 08:45:54 51°21.283 3°3.758 71.6 14.8 71 11.6
2004-02-03 08:45:58 51°21.289 3°3.784 74 15.3 70 11.5
2004-02-03 08:46:04 51°21.298 3°3.823 74.4 15.6 69 11.6
2004-02-03 08:46:09 51°21.306 3°3.854 72.8 15.2 68 11.6
2004-02-03 08:46:14 51°21.314 3°3.884 71 14.7 67 11.7
2004-02-03 08:46:20 51°21.322 3°3.921 72.2 14.8 70 11.6
2004-02-03 08:46:24 51°21.329 3°3.946 72.9 15.6 68 11.5
2004-02-03 08:46:28 51°21.336 3°3.972 71.7 15.8 68 11.5
2004-02-03 08:46:34 51°21.347 3°4.01 69.9 15.3 65 11.6
2004-02-03 08:46:39 51°21.354 3°4.04 69.3 14.8 68 11.7
2004-02-03 08:46:44 51°21.362 3°4.071 71 15 68 11.6
2004-02-03 08:46:49 51°21.37 3°4.102 71.8 15.2 69 11.6
2004-02-03 08:46:54 51°21.377 3°4.134 73.3 15.4 69 11.6
2004-02-03 08:46:58 51°21.383 3°4.16 73.4 15.4 71 11.6
2004-02-03 08:47:04 51°21.392 3°4.197 73.8 15.1 69 11.7
2004-02-03 08:47:10 51°21.4 3°4.235 73 14.9 70 11.8
2004-02-03 08:47:14 51°21.406 3°4.259 73.8 15 69 11.7
2004-02-03 08:47:19 51°21.414 3°4.291 73 15.2 69 11.6
2004-02-03 08:47:24 51°21.422 3°4.323 72.1 15.6 67 11.7
2004-02-03 08:47:29 51°21.431 3°4.354 70.8 15.5 67 11.7
2004-02-03 08:47:34 51°21.439 3°4.385 70.4 15.2 67 11.7
2004-02-03 08:47:39 51°21.446 3°4.416 71.1 15 68 11.7
2004-02-03 08:47:44 51°21.453 3°4.447 71.8 14.9 69 11.8
2004-02-03 08:47:50 51°21.462 3°4.485 73.3 15 70 11.8
2004-02-03 08:47:54 51°21.469 3°4.51 73.8 15.5 68 11.8
2004-02-03 08:47:59 51°21.476 3°4.542 72.3 15.2 70 11.9
2004-02-03 08:48:04 51°21.483 3°4.573 73.1 15 70 11.9
2004-02-03 08:48:08 51°21.489 3°4.598 73.3 15.1 69 11.8
2004-02-03 08:48:14 51°21.498 3°4.636 73.6 15.2 68 11.9
2004-02-03 08:48:18 51°21.504 3°4.661 72.8 15.1 71 12
2004-02-03 08:48:24 51°21.512 3°4.699 74.6 15.1 70 11.9
2004-02-03 08:48:29 51°21.519 3°4.731 74.7 15.3 71 11.9
2004-02-03 08:48:34 51°21.527 3°4.764 74.7 15.5 70 11.9
2004-02-03 08:48:40 51°21.536 3°4.802 73.8 15.7 69 11.8
2004-02-03 08:48:44 51°21.542 3°4.828 72.6 15.5 70 11.9
2004-02-03 08:48:48 51°21.547 3°4.852 72.9 15 70 12
2004-02-03 08:48:54 51°21.554 3°4.889 75.4 14.6 74 12
2004-02-03 08:49:00 51°21.562 3°4.929 77.7 15.4 72 11.9
2004-02-03 08:49:04 51°21.567 3°4.956 76.7 16.1 71 11.8
2004-02-03 08:49:10 51°21.578 3°4.994 74.5 16 70 11.9
2004-02-03 08:49:14 51°21.583 3°5.02 72.1 15.1 70 12
2004-02-03 08:49:19 51°21.591 3°5.05 72.2 14.8 68 12.1
2004-02-03 08:49:24 51°21.596 3°5.081 73.6 14.7 72 12.1
2004-02-03 08:49:30 51°21.605 3°5.12 75.6 15.3 71 12
2004-02-03 08:49:34 51°21.61 3°5.147 75.6 15.9 71 11.9
2004-02-03 08:49:39 51°21.618 3°5.179 74.9 15.6 71 12
2004-02-03 08:49:44 51°21.624 3°5.211 74.7 15.2 71 12.1
2004-02-03 08:49:49 51°21.631 3°5.242 75.1 14.9 72 12.1
2004-02-03 08:49:54 51°21.636 3°5.274 76.7 14.9 73 12.1
2004-02-03 08:49:59 51°21.642 3°5.306 77.8 15.1 74 12
2004-02-03 08:50:04 51°21.649 3°5.338 78.1 15.2 70 12
2004-02-03 08:50:09 51°21.656 3°5.369 75.4 15.1 70 12.2
2004-02-03 08:50:14 51°21.662 3°5.4 75.8 14.9 72 12.1
2004-02-03 08:50:20 51°21.671 3°5.438 76 14.9 72 12
2004-02-03 08:50:24 51°21.676 3°5.464 73.3 15.2 69 12
2004-02-03 08:50:30 51°21.684 3°5.502 74.7 15 73 12.1
2004-02-03 08:50:34 51°21.689 3°5.527 75.6 14.9 71 12.4
2004-02-03 08:50:39 51°21.695 3°5.558 75.4 14.6 73 12.4
2004-02-03 08:50:44 51°21.701 3°5.589 76.9 14.8 73 12.2
2004-02-03 08:50:49 51°21.707 3°5.622 77.6 15.1 73 12.2
2004-02-03 08:50:54 51°21.714 3°5.655 76.2 15.6 71 12.1
2004-02-03 08:50:59 51°21.721 3°5.686 75.3 15.2 71 12.2
2004-02-03 08:51:04 51°21.727 3°5.717 75.2 14.4 72 12.3
2004-02-03 08:51:10 51°21.734 3°5.754 76.8 14.3 74 12.3
2004-02-03 08:51:14 51°21.739 3°5.78 78.3 15.2 73 12.2
2004-02-03 08:51:19 51°21.746 3°5.813 77.2 15.9 71 12
2004-02-03 08:51:24 51°21.753 3°5.847 74.4 16.2 70 12.1
2004-02-03 08:51:30 51°21.762 3°5.885 73.1 15.8 69 12.2
2004-02-03 08:51:34 51°21.767 3°5.909 73.2 14.5 73 12.3
2004-02-03 08:51:39 51°21.772 3°5.94 76 14.6 74 12.3
2004-02-03 08:51:44 51°21.778 3°5.973 77.8 15.1 74 12.2
2004-02-03 08:51:50 51°21.785 3°6.013 78.4 15.5 75 12.2
2004-02-03 08:51:54 51°21.79 3°6.039 78.7 15.4 73 12.3
2004-02-03 08:51:59 51°21.797 3°6.071 76.8 15.1 71 12.3
2004-02-03 08:52:04 51°21.803 3°6.102 75.9 14.9 73 12.3
2004-02-03 08:52:09 51°21.81 3°6.134 75.4 15.1 71 12.3
2004-02-03 08:52:14 51°21.817 3°6.166 74.5 15.4 71 12.2
2004-02-03 08:52:19 51°21.824 3°6.198 74.4 15.5 71 12.2
2004-02-03 08:52:24 51°21.831 3°6.231 74.9 15.5 72 12.2
2004-02-03 08:52:29 51°21.837 3°6.263 75.4 15.4 72 12.3
2004-02-03 08:52:34 51°21.843 3°6.295 76.6 14.8 74 12.3
2004-02-03 08:52:40 51°21.85 3°6.333 77.3 14.9 74 12.3
2004-02-03 08:52:44 51°21.855 3°6.36 77.5 15.4 74 12.3
2004-02-03 08:52:49 51°21.86 3°6.392 77.6 15.3 74 12.4
2004-02-03 08:52:54 51°21.865 3°6.424 78.7 15 76 12.3
2004-02-03 08:52:59 51°21.871 3°6.457 79.7 15.2 74 12.3
2004-02-03 08:53:04 51°21.877 3°6.489 78.6 15.3 74 12.4
2004-02-03 08:53:10 51°21.884 3°6.528 78.2 15.3 74 12.4
2004-02-03 08:53:14 51°21.889 3°6.554 76.9 15.3 72 12.5
2004-02-03 08:53:20 51°21.897 3°6.593 76.2 15.2 73 12.5
2004-02-03 08:53:24 51°21.902 3°6.618 76.1 15.2 73 12.6
2004-02-03 08:53:30 51°21.909 3°6.656 75.5 14.9 72 12.6
2004-02-03 08:53:34 51°21.914 3°6.682 77.2 15.5 73 12.5
2004-02-03 08:53:39 51°21.921 3°6.715 76.4 15.6 71 12.6
2004-02-03 08:53:44 51°21.928 3°6.747 75.4 15.6 71 12.6
2004-02-03 08:53:50 51°21.936 3°6.786 75.6 15.3 71 12.6
2004-02-03 08:53:54 51°21.941 3°6.812 75.4 15.1 72 12.6
2004-02-03 08:53:58 51°21.945 3°6.837 76.1 15.2 74 12.7
2004-02-03 08:54:04 51°21.954 3°6.876 76.9 15.4 72 12.7
2004-02-03 08:54:10 51°21.962 3°6.915 76 15.4 72 12.7
2004-02-03 08:54:14 51°21.967 3°6.941 75.3 15.2 72 12.7
2004-02-03 08:54:19 51°21.973 3°6.973 75.9 15.2 72 12.7
2004-02-03 08:54:24 51°21.98 3°7.005 75.3 15.2 71 12.7
2004-02-03 08:54:30 51°21.988 3°7.045 75.7 15.5 73 12.7
2004-02-03 08:54:34 51°21.993 3°7.072 76.3 15.8 73 12.7
2004-02-03 08:54:39 51°21.999 3°7.105 76.2 15.6 74 12.7
2004-02-03 08:54:44 51°22.003 3°7.139 79.2 15.3 78 12.8
2004-02-03 08:54:49 51°22.007 3°7.172 82.6 15.3 79 12.8
2004-02-03 08:54:54 51°22.009 3°7.206 84.9 15.5 82 12.8
2004-02-03 08:54:59 51°22.013 3°7.24 85.8 15.8 80 12.7
2004-02-03 08:55:04 51°22.017 3°7.275 84.7 15.8 80 12.8
2004-02-03 08:55:10 51°22.022 3°7.315 84.2 15.7 80 12.9
2004-02-03 08:55:14 51°22.024 3°7.341 83.8 15 81 13
2004-02-03 08:55:19 51°22.027 3°7.375 84.9 15.1 82 13
2004-02-03 08:55:24 51°22.03 3°7.409 86.2 15.5 82 12.8
2004-02-03 08:55:30 51°22.034 3°7.451 86.9 15.8 83 12.8
2004-02-03 08:55:34 51°22.036 3°7.478 86.3 15.7 82 12.9
2004-02-03 08:55:39 51°22.038 3°7.512 86.4 15.3 84 13
2004-02-03 08:55:44 51°22.041 3°7.544 87.4 15 82 13
2004-02-03 08:55:50 51°22.044 3°7.584 87.8 15 85 13
2004-02-03 08:55:54 51°22.047 3°7.612 88 15.8 82 12.9
2004-02-03 08:55:59 51°22.05 3°7.647 86.3 15.9 82 12.8
2004-02-03 08:56:04 51°22.053 3°7.682 86.3 15.7 82 12.9
2004-02-03 08:56:09 51°22.056 3°7.715 86.2 15.6 81 12.9
2004-02-03 08:56:14 51°22.059 3°7.749 86.5 15.5 81 12.9
2004-02-03 08:56:19 51°22.064 3°7.783 84.9 15.6 78 12.8
2004-02-03 08:56:24 51°22.068 3°7.817 82.7 15.7 77 12.9
2004-02-03 08:56:30 51°22.074 3°7.856 80.5 15.5 75 13
2004-02-03 08:56:34 51°22.078 3°7.882 80.5 15.2 77 13
2004-02-03 08:56:39 51°22.083 3°7.915 80.7 15.3 76 12.9
2004-02-03 08:56:44 51°22.089 3°7.948 79.9 15.4 76 12.8
2004-02-03 08:56:50 51°22.096 3°7.989 78.4 15.6 74 12.8
2004-02-03 08:56:54 51°22.1 3°8.016 78.7 15.5 77 12.9
2004-02-03 08:56:59 51°22.104 3°8.049 80.3 15.5 78 12.9
2004-02-03 08:57:04 51°22.108 3°8.083 82.4 15.7 79 13
2004-02-03 08:57:08 51°22.112 3°8.11 82.3 15.6 77 13.1
2004-02-03 08:57:14 51°22.117 3°8.149 82.3 15 77 13.1
2004-02-03 08:57:19 51°22.122 3°8.182 82 15.1 78 13.1
2004-02-03 08:57:24 51°22.128 3°8.215 81.4 15.5 75 13.1
2004-02-03 08:57:30 51°22.134 3°8.254 78.4 15.4 73 13.1
2004-02-03 08:57:34 51°22.139 3°8.28 78.4 15.2 75 13.1
2004-02-03 08:57:39 51°22.144 3°8.314 78.9 15.7 75 13.1
2004-02-03 08:57:44 51°22.15 3°8.348 78.7 16 74 13
2004-02-03 08:57:50 51°22.157 3°8.387 78.2 15.6 75 13.2
2004-02-03 08:57:55 51°22.16 3°8.42 78.5 14.8 79 13.3
2004-02-03 08:57:59 51°22.164 3°8.446 82.3 15.2 78 13.2
2004-02-03 08:58:04 51°22.169 3°8.48 81.2 15.6 76 13.2
2004-02-03 08:58:08 51°22.173 3°8.507 81 15.7 77 13.2
2004-02-03 08:58:14 51°22.18 3°8.547 79.8 15.4 76 13.2
2004-02-03 08:58:20 51°22.185 3°8.587 80.3 15.4 78 13.3
2004-02-03 08:58:24 51°22.189 3°8.614 81.2 15.7 77 13.3
2004-02-03 08:58:30 51°22.195 3°8.655 80.9 15.6 77 13.3
2004-02-03 08:58:34 51°22.199 3°8.682 81.3 15.6 76 13.3
2004-02-03 08:58:40 51°22.205 3°8.722 80.1 15.6 76 13.4
2004-02-03 08:58:44 51°22.209 3°8.749 80.5 15.5 78 13.3
2004-02-03 08:58:50 51°22.216 3°8.789 80.7 15.6 76 13.3
2004-02-03 08:58:54 51°22.219 3°8.816 79.3 15.5 79 13.4
2004-02-03 08:58:59 51°22.224 3°8.849 81.1 15.7 76 13.4
2004-02-03 08:59:04 51°22.228 3°8.883 80.4 15.8 78 13.4
2004-02-03 08:59:10 51°22.235 3°8.924 81.3 15.7 77 13.5
2004-02-03 08:59:14 51°22.238 3°8.95 81 15.4 78 13.5
2004-02-03 08:59:19 51°22.243 3°8.984 81 15.4 77 13.5
2004-02-03 08:59:24 51°22.248 3°9.017 80.4 15.6 76 13.5
2004-02-03 08:59:29 51°22.253 3°9.051 79.8 15.6 77 13.5
2004-02-03 08:59:34 51°22.258 3°9.085 81 15.8 78 13.6
2004-02-03 08:59:39 51°22.264 3°9.119 79.2 15.7 76 13.6
2004-02-03 08:59:44 51°22.268 3°9.153 80.5 15.4 78 13.9
2004-02-03 08:59:50 51°22.273 3°9.193 82.7 15.5 78 13.8
2004-02-03 08:59:54 51°22.277 3°9.219 82 15.4 79 13.7
2004-02-03 08:59:59 51°22.281 3°9.253 82.7 15.5 79 13.8
2004-02-03 09:00:04 51°22.286 3°9.287 82.2 15.3 78 13.9
2004-02-03 09:00:10 51°22.29 3°9.327 82.2 15.3 80 13.9
2004-02-03 09:00:14 51°22.294 3°9.354 83.3 15.7 79 14
2004-02-03 09:00:20 51°22.299 3°9.395 82.8 15.8 78 14
2004-02-03 09:00:24 51°22.302 3°9.422 82.5 15.5 79 14
2004-02-03 09:00:30 51°22.307 3°9.462 83.5 15.2 80 14.1
2004-02-03 09:00:34 51°22.31 3°9.489 83.7 15.8 80 14.1
2004-02-03 09:00:39 51°22.315 3°9.524 83.4 16.1 78 14.1
2004-02-03 09:00:44 51°22.319 3°9.558 81.7 15.9 78 14.2
2004-02-03 09:00:50 51°22.324 3°9.598 83 15.5 80 14.2
2004-02-03 09:00:54 51°22.327 3°9.625 83.4 15.4 79 14.3
2004-02-03 09:00:59 51°22.331 3°9.66 83.4 15.9 80 14.2
2004-02-03 09:01:04 51°22.336 3°9.695 82.7 15.9 80 14.2
2004-02-03 09:01:10 51°22.341 3°9.735 81.3 15.6 78 14.5
2004-02-03 09:01:14 51°22.344 3°9.762 83.4 15.4 80 14.5
2004-02-03 09:01:19 51°22.349 3°9.795 82.7 15.4 77 14.5
2004-02-03 09:01:24 51°22.352 3°9.83 82.6 15.6 80 14.3
2004-02-03 09:01:30 51°22.359 3°9.872 82.5 16.3 76 14.4
2004-02-03 09:01:34 51°22.362 3°9.899 79.9 15.8 79 14.6
2004-02-03 09:01:39 51°22.367 3°9.933 81.8 15.5 79 14.6
2004-02-03 09:01:44 51°22.371 3°9.966 80.7 15.3 75 14.8
2004-02-03 09:01:49 51°22.376 3°10 82.2 15.3 75 14.7
2004-02-03 09:01:54 51°22.38 3°10.034 80.7 15.7 78 14.7
2004-02-03 09:01:59 51°22.383 3°10.07 83.4 16.1 83 14.6
2004-02-03 09:02:04 51°22.389 3°10.105 84.3 16.5 78 14.7
2004-02-03 09:02:08 51°22.392 3°10.132 80.1 15.6 78 15
2004-02-03 09:02:14 51°22.397 3°10.172 82.1 15.4 78 15.4
2004-02-03 09:02:19 51°22.402 3°10.205 82 15.4 77 15.9
2004-02-03 09:02:24 51°22.405 3°10.24 83.2 15.9 79 16
2004-02-03 09:02:30 51°22.411 3°10.282 82.1 16.2 78 16.8
2004-02-03 09:02:34 51°22.415 3°10.309 81 16.1 80 18.8
2004-02-03 09:02:39 51°22.418 3°10.343 82 15.5 81 18.6
2004-02-03 09:02:44 51°22.423 3°10.377 83.5 15.9 79 18.7
2004-02-03 09:02:50 51°22.427 3°10.418 82.6 15.9 79 18.8
2004-02-03 09:02:54 51°22.43 3°10.445 83.1 15.5 79 18.8
2004-02-03 09:02:59 51°22.433 3°10.479 83.5 15.4 81 18.8
2004-02-03 09:03:04 51°22.437 3°10.513 84.6 15.6 81 18.8
2004-02-03 09:03:10 51°22.441 3°10.555 84.5 15.8 81 18.7
2004-02-03 09:03:14 51°22.443 3°10.582 83.6 15.9 80 18.8
2004-02-03 09:03:19 51°22.446 3°10.617 85.4 15.7 84 17.7
2004-02-03 09:03:24 51°22.449 3°10.65 85.7 15.5 80 17.1
2004-02-03 09:03:28 51°22.452 3°10.677 85.5 15.4 83 17.1
2004-02-03 09:03:34 51°22.455 3°10.719 84.9 15.8 82 16.8
2004-02-03 09:03:39 51°22.458 3°10.754 85.6 15.8 84 16.9
2004-02-03 09:03:44 51°22.46 3°10.788 87.5 15.7 83 16.5
2004-02-03 09:03:50 51°22.463 3°10.83 87.4 15.8 83 16.4
2004-02-03 09:03:54 51°22.465 3°10.858 86.6 15.9 83 16.3
2004-02-03 09:03:59 51°22.468 3°10.892 86.8 15.6 84 16.4
2004-02-03 09:04:04 51°22.47 3°10.927 88.5 15.5 85 16.4
2004-02-03 09:04:10 51°22.473 3°10.969 88 15.5 85 16.3
2004-02-03 09:04:14 51°22.475 3°10.998 86.5 16.2 85 16.3